Time;durP1;ratioP1;P1;durP2;ratioP2;P2;SDS_P1;SDS_P2;PMS_P1;PMS_P2;Temp;Humidity;BMP_temperature;BMP_pressure;BME280_temperature;BME280_humidity;BME280_pressure;Samples;Min_cycle;Max_cycle;Signal;HPM_P1;HPM_P2
2021/04/13 00:01:13;;;;;;;0.00;0.00;;;8.80;51.80;;;;;;4985609;28;20399;-79
2021/04/13 00:03:53;;;;;;;0.10;0.10;;;8.80;51.80;;;;;;5010109;28;20479;-78
2021/04/13 00:06:29;;;;;;;0.60;0.40;;;8.70;51.80;;;;;;4991033;28;20026;-79
2021/04/13 00:08:58;;;;;;;0.00;0.00;;;8.70;51.80;;;;;;4972923;28;20399;-78
2021/04/13 00:11:24;;;;;;;0.10;0.00;;;8.70;51.90;;;;;;4988941;28;20026;-78
2021/04/13 00:13:52;;;;;;;0.30;0.10;;;8.70;51.90;;;;;;4992043;28;20041;-78
2021/04/13 00:16:21;;;;;;;0.30;0.08;;;8.70;52.00;;;;;;4988039;28;20065;-79
2021/04/13 00:18:47;;;;;;;0.28;0.15;;;8.70;52.10;;;;;;4992919;28;20026;-78
2021/04/13 00:21:39;;;;;;;0.10;0.00;;;8.60;52.10;;;;;;4989348;28;20035;-78
2021/04/13 00:24:08;;;;;;;0.32;0.10;;;8.60;52.20;;;;;;4990787;28;20022;-78
2021/04/13 00:26:34;;;;;;;0.70;0.17;;;8.50;52.20;;;;;;4983595;28;20039;-78
2021/04/13 00:29:01;;;;;;;0.85;0.35;;;8.50;52.30;;;;;;4991156;28;20041;-78
2021/04/13 00:31:42;;;;;;;5.68;0.20;;;8.50;52.30;;;;;;4990844;28;20063;-78
2021/04/13 00:34:22;;;;;;;0.25;0.00;;;8.40;52.30;;;;;;4986739;28;20039;-79
2021/04/13 00:36:50;;;;;;;1.10;0.10;;;8.50;52.40;;;;;;4974650;28;20046;-78
2021/04/13 00:39:23;;;;;;;0.00;0.00;;;8.50;52.40;;;;;;4990410;28;20026;-78
2021/04/13 00:41:54;;;;;;;3.78;0.10;;;8.50;52.50;;;;;;4991339;28;20026;-78
2021/04/13 00:44:20;;;;;;;0.20;0.10;;;8.50;52.50;;;;;;4974969;28;20034;-78
2021/04/13 00:47:01;;;;;;;0.77;0.30;;;8.50;52.50;;;;;;4987932;28;20065;-78
2021/04/13 00:49:29;;;;;;;0.00;0.00;;;8.40;52.40;;;;;;4989733;28;20023;-78
2021/04/13 00:52:01;;;;;;;0.52;0.30;;;8.50;52.50;;;;;;4991313;28;20034;-78
2021/04/13 00:54:31;;;;;;;0.20;0.10;;;8.50;52.50;;;;;;4991009;28;20037;-78
2021/04/13 00:57:01;;;;;;;0.43;0.10;;;8.50;52.60;;;;;;4991017;28;20034;-78
2021/04/13 00:59:28;;;;;;;0.77;0.25;;;8.50;52.60;;;;;;4985897;28;20463;-78
2021/04/13 01:01:59;;;;;;;1.45;0.10;;;8.50;52.60;;;;;;4991445;28;20042;-78
2021/04/13 01:04:35;;;;;;;0.47;0.10;;;8.50;52.70;;;;;;4977661;28;20039;-78
2021/04/13 01:07:05;;;;;;;2.00;0.10;;;8.50;52.70;;;;;;4995029;28;20053;-78
2021/04/13 01:09:31;;;;;;;0.20;0.10;;;8.50;52.70;;;;;;4994644;28;20480;-78
2021/04/13 01:12:08;;;;;;;1.00;0.30;;;8.50;52.80;;;;;;4995914;28;20026;-78
2021/04/13 01:14:34;;;;;;;0.80;0.30;;;8.40;52.80;;;;;;4978167;28;20034;-78
2021/04/13 01:17:06;;;;;;;3.10;1.00;;;8.40;52.90;;;;;;4986073;28;20053;-78
2021/04/13 01:20:02;;;;;;;0.52;0.32;;;8.40;53.00;;;;;;4974374;28;20364;-78
2021/04/13 01:22:50;;;;;;;2.75;1.02;;;8.40;53.10;;;;;;5026085;28;20030;-78
2021/04/13 01:25:21;;;;;;;0.65;0.25;;;8.40;53.10;;;;;;4986444;28;20035;-78
2021/04/13 01:27:51;;;;;;;0.20;0.10;;;8.30;53.10;;;;;;4992120;28;20399;-78
2021/04/13 01:30:18;;;;;;;1.88;0.80;;;8.30;53.20;;;;;;4997333;28;20030;-78
2021/04/13 01:32:44;;;;;;;0.30;0.05;;;8.30;53.30;;;;;;4998178;28;20137;-78
2021/04/13 01:35:13;;;;;;;1.08;0.20;;;8.20;53.30;;;;;;4995575;28;20042;-77
2021/04/13 01:37:58;;;;;;;0.40;0.10;;;8.20;53.40;;;;;;5002061;28;20064;-78
2021/04/13 01:41:01;;;;;;;11.77;0.85;;;8.20;53.50;;;;;;5000269;28;20038;-78
2021/04/13 01:43:28;;;;;;;0.70;0.32;;;8.20;53.60;;;;;;5006811;28;20030;-78
2021/04/13 01:45:54;;;;;;;0.52;0.13;;;8.10;53.50;;;;;;4994742;28;20547;-78
2021/04/13 01:48:20;;;;;;;0.55;0.15;;;8.10;54.20;;;;;;4978330;28;20421;-78
2021/04/13 01:50:54;;;;;;;1.33;0.43;;;8.10;53.60;;;;;;4995359;28;20034;-78
2021/04/13 01:53:21;;;;;;;0.38;0.15;;;8.10;53.70;;;;;;4989800;28;20030;-78
2021/04/13 01:55:49;;;;;;;0.60;0.20;;;8.00;53.70;;;;;;4991900;28;20476;-78
2021/04/13 01:58:43;;;;;;;0.30;0.20;;;8.00;53.80;;;;;;4994862;28;20042;-78
2021/04/13 02:01:29;;;;;;;0.22;0.00;;;8.00;53.90;;;;;;5007887;28;20045;-78
2021/04/13 02:04:36;;;;;;;4.82;0.65;;;7.90;53.90;;;;;;4986833;28;20030;-78
2021/04/13 02:07:09;;;;;;;0.00;0.00;;;7.90;54.00;;;;;;4981914;28;20027;-78
2021/04/13 02:09:43;;;;;;;0.43;0.10;;;7.80;54.00;;;;;;4988517;28;20067;-78
2021/04/13 02:12:12;;;;;;;0.15;0.10;;;7.80;54.10;;;;;;4986185;28;20392;-78
2021/04/13 02:14:49;;;;;;;2.55;0.43;;;7.80;54.20;;;;;;4989718;28;20022;-78
2021/04/13 02:17:26;;;;;;;0.10;0.00;;;7.70;54.30;;;;;;4987925;28;20049;-78
2021/04/13 02:19:54;;;;;;;0.32;0.22;;;7.70;54.30;;;;;;4989727;28;20033;-78
2021/04/13 02:22:21;;;;;;;0.47;0.17;;;7.70;54.40;;;;;;5000206;28;20034;-78
2021/04/13 02:24:47;;;;;;;0.47;0.20;;;7.70;54.40;;;;;;4987960;28;20384;-78
2021/04/13 02:27:14;;;;;;;0.80;0.45;;;7.60;54.40;;;;;;4983069;28;20400;-78
2021/04/13 02:29:46;;;;;;;0.63;0.32;;;7.60;54.50;;;;;;4994474;28;20025;-78
2021/04/13 02:32:28;;;;;;;0.65;0.40;;;7.60;54.50;;;;;;4997987;28;20514;-77
2021/04/13 02:34:56;;;;;;;1.88;0.25;;;7.60;54.60;;;;;;4973007;28;20041;-78
2021/04/13 02:37:26;;;;;;;0.68;0.40;;;7.50;54.60;;;;;;4995078;28;20437;-77
2021/04/13 02:39:55;;;;;;;1.27;0.30;;;7.50;54.70;;;;;;5002475;28;20034;-78
2021/04/13 02:42:25;;;;;;;0.55;0.40;;;7.50;54.80;;;;;;4984962;28;20026;-78
2021/04/13 02:45:00;;;;;;;0.22;0.15;;;7.50;54.90;;;;;;4997452;28;20045;-77
2021/04/13 02:47:26;;;;;;;1.55;0.75;;;7.40;54.90;;;;;;5005052;28;20065;-77
2021/04/13 02:49:54;;;;;;;0.95;0.20;;;7.40;55.00;;;;;;4994527;28;20034;-78
2021/04/13 02:52:42;;;;;;;0.47;0.32;;;7.40;55.00;;;;;;4979298;28;20384;-78
2021/04/13 02:55:08;;;;;;;0.10;0.00;;;7.30;55.00;;;;;;5000445;28;20515;-78
2021/04/13 02:57:42;;;;;;;0.90;0.50;;;7.30;55.10;;;;;;4993448;28;20042;-78
2021/04/13 03:00:24;;;;;;;0.57;0.38;;;7.30;55.10;;;;;;4992929;28;20045;-78
2021/04/13 03:02:57;;;;;;;0.98;0.20;;;7.30;55.10;;;;;;4970410;28;20035;-78
2021/04/13 03:05:25;;;;;;;0.10;0.00;;;7.30;55.20;;;;;;4976679;28;20045;-78
2021/04/13 03:07:51;;;;;;;0.77;0.40;;;7.20;55.20;;;;;;4984880;28;20042;-78
2021/04/13 03:10:20;;;;;;;1.17;0.63;;;7.20;55.30;;;;;;4974814;28;20045;-78
2021/04/13 03:12:49;;;;;;;0.28;0.10;;;7.10;55.30;;;;;;4991961;28;20038;-78
2021/04/13 03:15:21;;;;;;;0.90;0.60;;;7.10;55.40;;;;;;4991285;28;20034;-78
2021/04/13 03:17:53;;;;;;;0.43;0.13;;;7.10;55.40;;;;;;4992152;28;20061;-78
2021/04/13 03:20:21;;;;;;;0.20;0.10;;;7.00;55.50;;;;;;4991229;28;20038;-78
2021/04/13 03:22:47;;;;;;;1.05;0.75;;;7.00;55.50;;;;;;4991981;28;20031;-77
2021/04/13 03:25:14;;;;;;;0.35;0.17;;;7.00;55.50;;;;;;4975248;28;20034;-78
2021/04/13 03:27:40;;;;;;;0.68;0.17;;;7.00;56.20;;;;;;4991855;28;20387;-77
2021/04/13 03:30:16;;;;;;;0.45;0.17;;;7.00;55.60;;;;;;4989594;28;20030;-78
2021/04/13 03:33:13;;;;;;;0.55;0.35;;;7.00;55.70;;;;;;4991586;28;20041;-78
2021/04/13 03:35:39;;;;;;;0.43;0.20;;;7.00;55.80;;;;;;4990389;28;20356;-77
2021/04/13 03:38:08;;;;;;;0.40;0.30;;;7.00;55.70;;;;;;4991706;28;20390;-78
2021/04/13 03:40:36;;;;;;;0.20;0.03;;;7.00;55.80;;;;;;4986592;28;20034;-78
2021/04/13 03:43:04;;;;;;;0.30;0.10;;;6.90;55.80;;;;;;4973849;28;20033;-78
2021/04/13 03:45:30;;;;;;;0.30;0.30;;;6.90;55.80;;;;;;4974838;28;20050;-78
2021/04/13 03:47:59;;;;;;;2.17;0.38;;;6.90;55.90;;;;;;4991615;28;20033;-77
2021/04/13 03:50:27;;;;;;;1.40;0.20;;;6.80;55.90;;;;;;4975643;28;20057;-77
2021/04/13 03:53:08;;;;;;;0.28;0.20;;;6.80;56.00;;;;;;4991304;28;20026;-78
2021/04/13 03:55:34;;;;;;;0.20;0.20;;;6.80;56.10;;;;;;4987328;28;20027;-78
2021/04/13 03:58:21;;;;;;;0.30;0.00;;;6.80;56.10;;;;;;4989832;28;20058;-77
2021/04/13 04:00:48;;;;;;;0.63;0.15;;;6.70;56.20;;;;;;4995574;28;20038;-78
2021/04/13 04:03:14;;;;;;;0.43;0.25;;;6.70;56.20;;;;;;4995815;28;20033;-78
2021/04/13 04:05:48;;;;;;;0.95;0.30;;;6.70;56.20;;;;;;4994107;28;20022;-78
2021/04/13 04:08:48;;;;;;;0.50;0.22;;;6.70;56.30;;;;;;4993382;28;20415;-78
2021/04/13 04:11:15;;;;;;;2.10;0.95;;;6.70;56.30;;;;;;4991574;28;20034;-78
2021/04/13 04:13:48;;;;;;;0.55;0.28;;;6.70;56.20;;;;;;4982861;28;20035;-78
2021/04/13 04:16:20;;;;;;;0.73;0.32;;;6.60;56.20;;;;;;5002396;28;20522;-78
2021/04/13 04:18:48;;;;;;;0.75;0.40;;;6.60;56.30;;;;;;4973896;28;20061;-78
2021/04/13 04:21:31;;;;;;;0.63;0.30;;;6.60;56.30;;;;;;4991240;28;20022;-77
2021/04/13 04:24:09;;;;;;;0.77;0.28;;;6.50;56.40;;;;;;4999481;28;20046;-79
2021/04/13 04:26:49;;;;;;;0.38;0.20;;;6.50;56.40;;;;;;4991180;28;20236;-81
2021/04/13 04:29:22;;;;;;;0.57;0.28;;;6.50;56.40;;;;;;4989470;28;20030;-82
2021/04/13 04:31:48;;;;;;;0.63;0.32;;;6.50;56.50;;;;;;4991417;28;20034;-83
2021/04/13 04:34:14;;;;;;;0.32;0.05;;;6.50;56.50;;;;;;4996181;28;20480;-83
2021/04/13 04:36:45;;;;;;;2.92;0.80;;;6.50;56.60;;;;;;4992221;28;20043;-82
2021/04/13 04:39:32;;;;;;;11.48;0.93;;;6.40;56.60;;;;;;4990618;28;20415;-81
2021/04/13 04:42:12;;;;;;;0.50;0.30;;;6.40;56.60;;;;;;4993598;28;20483;-81
2021/04/13 04:44:38;;;;;;;1.02;0.45;;;6.50;56.70;;;;;;4994037;28;20054;-80
2021/04/13 04:47:37;;;;;;;3.50;1.60;;;6.40;56.60;;;;;;4995448;28;20057;-80
2021/04/13 04:50:08;;;;;;;0.95;0.22;;;6.40;56.70;;;;;;4987736;28;20569;-82
2021/04/13 04:52:34;;;;;;;5.28;0.50;;;6.40;56.70;;;;;;5006263;28;20038;-82
2021/04/13 04:55:00;;;;;;;0.98;0.17;;;6.30;56.70;;;;;;4992614;28;20038;-83
2021/04/13 04:57:27;;;;;;;1.05;0.40;;;6.30;56.90;;;;;;4991369;28;20069;-83
2021/04/13 04:59:53;;;;;;;0.60;0.38;;;6.20;56.90;;;;;;4988672;28;20031;-84
2021/04/13 05:02:19;;;;;;;1.33;0.80;;;6.20;57.10;;;;;;4986632;28;20038;-84
2021/04/13 05:04:45;;;;;;;0.38;0.13;;;6.10;57.20;;;;;;4995034;28;20494;-80
2021/04/13 05:07:12;;;;;;;2.80;0.93;;;6.10;57.30;;;;;;4969462;28;20041;-80
2021/04/13 05:09:38;;;;;;;0.30;0.10;;;6.10;57.30;;;;;;4992164;28;20030;-80
2021/04/13 05:12:05;;;;;;;1.23;0.60;;;6.10;57.30;;;;;;4993925;28;20042;-80
2021/04/13 05:14:31;;;;;;;0.13;0.13;;;6.00;57.30;;;;;;4975157;28;20046;-83
2021/04/13 05:16:57;;;;;;;0.25;0.20;;;6.00;57.40;;;;;;5001960;28;20046;-83
2021/04/13 05:19:23;;;;;;;0.57;0.10;;;6.00;57.40;;;;;;4993714;28;20297;-85
2021/04/13 05:21:49;;;;;;;1.23;0.73;;;6.00;57.60;;;;;;4996092;28;20030;-84
2021/04/13 05:24:16;;;;;;;1.00;0.57;;;5.90;57.70;;;;;;4982940;28;20042;-84
2021/04/13 05:26:42;;;;;;;1.23;0.47;;;5.90;57.70;;;;;;5001739;28;20399;-80
2021/04/13 05:29:08;;;;;;;4.90;0.87;;;5.90;57.80;;;;;;4978416;28;20113;-79
2021/04/13 05:31:39;;;;;;;1.20;0.73;;;5.90;57.80;;;;;;4993081;28;20030;-82
2021/04/13 05:34:07;;;;;;;1.08;0.77;;;5.90;57.80;;;;;;4988355;28;20042;-82
2021/04/13 05:36:34;;;;;;;0.63;0.33;;;5.90;57.80;;;;;;4972867;28;20030;-82
2021/04/13 05:39:00;;;;;;;0.73;0.33;;;5.90;57.70;;;;;;4989785;28;20030;-82
2021/04/13 05:41:26;;;;;;;0.40;0.22;;;6.00;57.80;;;;;;4994076;28;20042;-79
2021/04/13 05:43:53;;;;;;;0.63;0.13;;;6.00;57.80;;;;;;4993504;28;20035;-80
2021/04/13 05:46:23;;;;;;;1.63;0.55;;;6.00;57.90;;;;;;4976775;28;20484;-81
2021/04/13 05:48:49;;;;;;;1.83;0.52;;;6.00;58.00;;;;;;4992220;28;20026;-80
2021/04/13 05:51:15;;;;;;;0.23;0.10;;;6.00;58.00;;;;;;4993514;28;20041;-81
2021/04/13 05:53:41;;;;;;;1.08;0.55;;;5.90;58.20;;;;;;4985806;28;20026;-80
2021/04/13 05:56:07;;;;;;;0.23;0.17;;;6.00;58.20;;;;;;4994890;28;20030;-82
2021/04/13 05:58:39;;;;;;;0.37;0.27;;;6.00;58.30;;;;;;4975565;28;20058;-82
2021/04/13 06:01:06;;;;;;;0.77;0.27;;;6.10;58.40;;;;;;4973433;28;20050;-82
2021/04/13 06:03:32;;;;;;;1.48;0.57;;;6.20;58.40;;;;;;4976621;28;20034;-80
2021/04/13 06:05:58;;;;;;;0.30;0.10;;;6.20;58.40;;;;;;4993968;28;20039;-80
2021/04/13 06:08:25;;;;;;;0.88;0.43;;;6.30;58.50;;;;;;4985506;28;20475;-80
2021/04/13 06:10:53;;;;;;;0.40;0.27;;;6.30;58.50;;;;;;4990902;28;20522;-80
2021/04/13 06:13:19;;;;;;;0.40;0.35;;;6.50;58.70;;;;;;4972805;28;20038;-79
2021/04/13 06:15:45;;;;;;;0.20;0.10;;;6.60;58.80;;;;;;4974841;28;20039;-79
2021/04/13 06:18:11;;;;;;;0.05;0.00;;;6.70;58.80;;;;;;4993690;28;20042;-79
2021/04/13 06:20:37;;;;;;;0.00;0.00;;;6.80;58.90;;;;;;4994138;28;20026;-79
2021/04/13 06:23:03;;;;;;;0.93;0.47;;;6.90;58.90;;;;;;4993493;28;20475;-80
2021/04/13 06:25:31;;;;;;;0.65;0.35;;;7.10;58.80;;;;;;4992405;28;20033;-79
2021/04/13 06:27:58;;;;;;;0.22;0.05;;;7.20;58.80;;;;;;4990700;28;20037;-79
2021/04/13 06:30:25;;;;;;;3.30;0.20;;;7.30;58.70;;;;;;4976872;28;20230;-79
2021/04/13 06:32:51;;;;;;;1.65;0.45;;;7.50;58.60;;;;;;4993001;28;20041;-79
2021/04/13 06:35:18;;;;;;;0.50;0.30;;;7.60;58.60;;;;;;4992201;28;20034;-80
2021/04/13 06:37:45;;;;;;;0.10;0.00;;;7.70;58.60;;;;;;4988230;28;20042;-80
2021/04/13 06:40:36;;;;;;;0.47;0.17;;;7.80;58.70;;;;;;4991152;28;20026;-81
2021/04/13 06:43:20;;;;;;;0.57;0.20;;;7.80;59.00;;;;;;4951059;29;20083;-81
2021/04/13 06:45:48;;;;;;;0.40;0.30;;;7.90;59.00;;;;;;4948785;28;20562;-81
2021/04/13 06:48:21;;;;;;;2.13;0.80;;;8.00;58.90;;;;;;4934275;29;20043;-79
2021/04/13 06:51:09;;;;;;;0.20;0.10;;;8.20;58.80;;;;;;4919266;29;20051;-78
2021/04/13 06:53:38;;;;;;;0.00;0.00;;;8.30;58.90;;;;;;4937650;29;20047;-78
2021/04/13 06:56:10;;;;;;;0.50;0.13;;;8.40;58.80;;;;;;4951422;28;20199;-79
2021/04/13 06:58:52;;;;;;;0.80;0.10;;;8.50;58.80;;;;;;4952001;29;20054;-79
2021/04/13 07:01:20;;;;;;;1.95;0.63;;;8.60;58.90;;;;;;4948741;29;20051;-80
2021/04/13 07:04:12;;;;;;;0.22;0.10;;;8.60;58.90;;;;;;4932159;29;20047;-79
2021/04/13 07:06:56;;;;;;;;;;;8.70;59.00;;;;;;4932092;29;20051;-80
2021/04/13 07:09:38;;;;;;;0.90;0.43;;;8.80;58.90;;;;;;4946737;29;20010;-80
2021/04/13 07:12:14;;;;;;;0.08;0.08;;;8.90;58.70;;;;;;4935717;29;20039;-80
2021/04/13 07:15:03;;;;;;;0.10;0.03;;;9.10;58.60;;;;;;4935072;29;20039;-79
2021/04/13 07:18:01;;;;;;;1.08;0.52;;;9.10;58.50;;;;;;4934877;29;20400;-80
2021/04/13 07:21:04;;;;;;;0.45;0.40;;;9.20;58.50;;;;;;4963027;28;20038;-82
2021/04/13 07:23:34;;;;;;;0.00;0.00;;;9.30;58.50;;;;;;4991030;28;20022;-86
2021/04/13 07:26:06;;;;;;;0.93;0.10;;;9.40;58.40;;;;;;4972952;28;20026;-81
2021/04/13 07:28:37;;;;;;;1.60;0.30;;;9.50;58.40;;;;;;4972181;28;20031;-79
2021/04/13 07:31:06;;;;;;;0.63;0.28;;;9.50;58.40;;;;;;4972683;28;20042;-80
2021/04/13 07:33:33;;;;;;;0.00;0.00;;;9.60;58.40;;;;;;4972881;28;20095;-78
2021/04/13 07:36:13;;;;;;;1.13;0.32;;;9.80;58.20;;;;;;4990109;28;20034;-78
2021/04/13 07:38:44;;;;;;;0.30;0.05;;;9.90;58.00;;;;;;4989184;28;20034;-79
2021/04/13 07:41:16;;;;;;;0.90;0.20;;;10.10;57.80;;;;;;4988462;28;20031;-81
2021/04/13 07:43:59;;;;;;;2.30;0.75;;;10.30;57.50;;;;;;5021887;28;20022;-82
2021/04/13 07:46:57;;;;;;;1.85;0.90;;;10.40;57.30;;;;;;4986973;28;20043;-85
2021/04/13 07:49:45;;;;;;;0.70;0.15;;;10.60;57.10;;;;;;5006752;28;20038;-87
2021/04/13 07:52:42;;;;;;;2.00;0.35;;;10.70;56.80;;;;;;4990756;28;20045;-84
2021/04/13 07:55:32;;;;;;;1.05;0.63;;;10.60;56.80;;;;;;4991503;28;20471;-82
2021/04/13 07:58:10;;;;;;;2.60;0.95;;;10.60;56.80;;;;;;4989249;28;20514;-83
2021/04/13 08:00:40;;;;;;;0.55;0.10;;;10.70;56.70;;;;;;4985957;28;20040;-87
2021/04/13 08:03:23;;;;;;;0.10;0.10;;;10.80;56.50;;;;;;5001509;28;20048;-86
2021/04/13 08:05:51;;;;;;;1.40;0.65;;;10.90;56.50;;;;;;4988400;28;20030;-85
2021/04/13 08:08:35;;;;;;;1.27;0.50;;;11.00;56.20;;;;;;4954161;28;20038;-84
2021/04/13 08:11:19;;;;;;;0.05;0.03;;;11.10;56.10;;;;;;5012331;28;20101;-84
2021/04/13 08:13:50;;;;;;;0.35;0.25;;;11.10;55.90;;;;;;5027761;28;20035;-84
2021/04/13 08:16:26;;;;;;;0.75;0.10;;;11.20;55.70;;;;;;4975858;28;20035;-84
2021/04/13 08:18:54;;;;;;;0.22;0.20;;;11.30;55.50;;;;;;4976324;28;20059;-85
2021/04/13 08:21:26;;;;;;;1.35;0.55;;;11.40;55.30;;;;;;4978463;28;20029;-86
2021/04/13 08:23:53;;;;;;;0.05;0.03;;;11.50;55.20;;;;;;4985556;28;20045;-88
2021/04/13 08:26:38;;;;;;;0.32;0.20;;;11.60;55.00;;;;;;4995820;28;20345;-88
2021/04/13 08:29:16;;;;;;;1.65;0.55;;;11.70;55.00;;;;;;5016911;28;20369;-82
2021/04/13 08:35:30;;;;;;;1.85;0.47;;;12.20;55.00;;;;;;4998042;28;20388;-81
2021/04/13 08:37:59;;;;;;;0.40;0.22;;;12.50;54.60;;;;;;4995695;28;20045;-83
2021/04/13 08:40:35;;;;;;;1.15;0.47;;;12.60;54.40;;;;;;4997973;28;20027;-83
2021/04/13 08:43:08;;;;;;;0.98;0.43;;;12.70;54.40;;;;;;4979986;28;20050;-84
2021/04/13 08:45:41;;;;;;;1.83;0.35;;;12.70;54.50;;;;;;4993961;28;20518;-84
2021/04/13 08:48:19;;;;;;;1.55;0.52;;;12.80;54.80;;;;;;5020820;28;20045;-82
2021/04/13 08:50:51;;;;;;;0.68;0.13;;;13.00;54.50;;;;;;4980062;28;20038;-81
2021/04/13 08:54:03;;;;;;;1.30;0.50;;;13.20;54.40;;;;;;4979860;28;20057;-79
2021/04/13 08:56:30;;;;;;;1.95;0.32;;;13.40;54.20;;;;;;4959360;28;20019;-82
2021/04/13 08:59:02;;;;;;;1.50;0.20;;;13.50;53.50;;;;;;4941123;28;20054;-81
2021/04/13 09:01:35;;;;;;;;;;;13.30;53.10;;;;;;4944454;28;20124;-81
2021/04/13 09:04:08;;;;;;;0.40;0.10;;;13.30;53.10;;;;;;4945278;28;20050;-81
2021/04/13 09:06:56;;;;;;;0.05;0.05;;;13.10;52.70;;;;;;4933039;28;20413;-80
2021/04/13 09:09:42;;;;;;;2.08;0.45;;;13.00;52.60;;;;;;4972061;28;20035;-80
2021/04/13 09:12:20;;;;;;;0.77;0.28;;;12.80;52.30;;;;;;4953944;28;20131;-81
2021/04/13 09:15:08;;;;;;;0.52;0.10;;;12.80;52.00;;;;;;4928356;28;20043;-81
2021/04/13 09:17:37;;;;;;;0.90;0.22;;;12.80;51.80;;;;;;4957239;28;20039;-80
2021/04/13 09:20:13;;;;;;;1.27;0.57;;;12.80;51.40;;;;;;4953434;28;20053;-80
2021/04/13 09:23:07;;;;;;;0.00;0.00;;;12.90;51.00;;;;;;4959478;28;20038;-80
2021/04/13 09:25:54;;;;;;;2.17;0.68;;;13.00;50.60;;;;;;4949288;28;20035;-81
2021/04/13 09:28:22;;;;;;;0.10;0.05;;;13.00;50.10;;;;;;4992114;28;20034;-84
2021/04/13 09:30:50;;;;;;;1.30;0.40;;;13.00;49.90;;;;;;5023643;28;20484;-81
2021/04/13 09:33:19;;;;;;;1.40;0.50;;;13.00;49.60;;;;;;5005837;28;20038;-81
2021/04/13 09:36:02;;;;;;;0.30;0.08;;;13.10;49.40;;;;;;4989930;28;20030;-83
2021/04/13 09:38:49;;;;;;;0.10;0.00;;;13.10;49.30;;;;;;5008602;28;20042;-83
2021/04/13 09:41:35;;;;;;;0.63;0.30;;;13.00;49.00;;;;;;4988824;28;20046;-84
2021/04/13 09:44:38;;;;;;;0.52;0.28;;;13.00;48.90;;;;;;4990239;28;20488;-82
2021/04/13 09:47:32;;;;;;;0.22;0.22;;;13.20;48.70;;;;;;4981638;28;20508;-84
2021/04/13 09:50:12;;;;;;;1.15;0.50;;;13.20;48.20;;;;;;4991506;28;20038;-82
2021/04/13 09:52:49;;;;;;;2.03;0.82;;;13.20;47.60;;;;;;4974559;28;20022;-82
2021/04/13 09:55:49;;;;;;;3.67;1.10;;;13.20;47.60;;;;;;4968796;28;20054;-79
2021/04/13 09:58:15;;;;;;;0.25;0.17;;;13.20;47.40;;;;;;4990493;28;20057;-81
2021/04/13 10:00:50;;;;;;;1.70;0.60;;;13.30;47.10;;;;;;4990523;28;20061;-81
2021/04/13 10:03:50;;;;;;;0.28;0.10;;;13.20;46.80;;;;;;4989687;28;20038;-91
2021/04/13 10:06:16;;;;;;;3.65;0.65;;;13.20;46.40;;;;;;4986670;28;20034;-86
2021/04/13 10:08:46;;;;;;;0.28;0.10;;;13.20;45.90;;;;;;4971575;28;20031;-88
2021/04/13 10:11:29;;;;;;;0.17;0.08;;;13.10;45.60;;;;;;4988193;28;20511;-87
2021/04/13 10:14:19;;;;;;;0.30;0.05;;;13.20;45.50;;;;;;4988951;28;20034;-84
2021/04/13 10:16:51;;;;;;;0.73;0.25;;;13.20;45.00;;;;;;4985554;28;20034;-87
2021/04/13 10:19:39;;;;;;;0.38;0.17;;;13.20;44.60;;;;;;4990172;28;20399;-88
2021/04/13 10:22:07;;;;;;;0.20;0.10;;;13.20;43.90;;;;;;5006341;28;20061;-85
2021/04/13 10:25:00;;;;;;;1.27;0.30;;;13.20;43.10;;;;;;5019472;28;20027;-84
2021/04/13 10:27:59;;;;;;;1.55;0.40;;;13.20;43.40;;;;;;5018513;28;20030;-84
2021/04/13 10:30:49;;;;;;;1.58;0.38;;;13.20;42.60;;;;;;4970226;28;20388;-82
2021/04/13 10:33:21;;;;;;;0.47;0.33;;;13.30;42.60;;;;;;4970362;28;20030;-86
2021/04/13 10:36:15;;;;;;;0.70;0.40;;;13.40;42.40;;;;;;4953193;28;20049;-87
2021/04/13 10:38:41;;;;;;;0.10;0.10;;;13.40;42.20;;;;;;4952673;28;20046;-86
2021/04/13 10:41:28;;;;;;;0.45;0.08;;;13.40;42.20;;;;;;4970467;28;20049;-84
2021/04/13 10:44:09;;;;;;;0.68;0.30;;;13.50;42.00;;;;;;4953334;28;20046;-87
2021/04/13 10:46:52;;;;;;;2.60;0.20;;;13.50;41.70;;;;;;4962646;28;20055;-85
2021/04/13 10:49:35;;;;;;;0.03;0.00;;;13.40;41.40;;;;;;4921962;28;20073;-85
2021/04/13 10:52:01;;;;;;;0.10;0.00;;;13.40;41.70;;;;;;4937102;28;20505;-83
2021/04/13 10:54:39;;;;;;;0.10;0.00;;;13.40;42.00;;;;;;4964692;28;20047;-85
2021/04/13 10:57:26;;;;;;;0.10;0.05;;;13.60;42.00;;;;;;4962670;28;20046;-84
2021/04/13 11:00:23;;;;;;;0.10;0.10;;;13.70;42.00;;;;;;4945383;28;20050;-84
2021/04/13 11:03:17;;;;;;;3.42;0.40;;;13.70;41.80;;;;;;4960081;28;20041;-86
2021/04/13 11:06:20;;;;;;;0.50;0.20;;;13.80;41.90;;;;;;4969919;28;20041;-85
2021/04/13 11:09:34;;;;;;;0.63;0.25;;;13.90;41.90;;;;;;4986753;28;20042;-85
2021/04/13 11:12:24;;;;;;;1.48;0.57;;;13.90;41.90;;;;;;4963282;28;20038;-85
2021/04/13 11:15:22;;;;;;;1.40;0.40;;;14.00;41.90;;;;;;4938294;28;20377;-85
2021/04/13 11:17:58;;;;;;;0.88;0.25;;;14.00;41.90;;;;;;4927207;28;20035;-84
2021/04/13 11:20:49;;;;;;;0.57;0.30;;;13.90;41.70;;;;;;4951885;28;20043;-86
2021/04/13 11:23:44;;;;;;;1.52;0.85;;;13.90;41.80;;;;;;4952886;28;20143;-84
2021/04/13 11:26:28;;;;;;;1.17;0.52;;;14.00;42.00;;;;;;4950332;28;20398;-84
2021/04/13 11:29:13;;;;;;;1.45;0.30;;;14.30;41.90;;;;;;4967981;28;20034;-86
2021/04/13 11:32:29;;;;;;;0.32;0.32;;;14.50;41.80;;;;;;4950549;28;20234;-87
2021/04/13 11:35:22;;;;;;;0.25;0.13;;;14.50;41.60;;;;;;4910814;29;20141;-84
2021/04/13 11:38:10;;;;;;;0.20;0.10;;;14.40;41.70;;;;;;4909919;29;20189;-83
2021/04/13 11:40:43;;;;;;;0.40;0.10;;;14.30;41.60;;;;;;4909738;29;20047;-85
2021/04/13 11:43:11;;;;;;;0.55;0.30;;;14.30;41.80;;;;;;4909933;29;20463;-82
2021/04/13 11:46:00;;;;;;;1.33;0.50;;;14.30;41.60;;;;;;4909385;28;20524;-85
2021/04/13 11:48:41;;;;;;;0.00;0.00;;;14.20;41.50;;;;;;4928143;29;20035;-85
2021/04/13 11:51:11;;;;;;;0.85;0.55;;;14.30;41.60;;;;;;4947589;28;20035;-85
2021/04/13 11:53:41;;;;;;;1.63;0.47;;;14.30;41.40;;;;;;4949677;28;20047;-85
2021/04/13 11:56:23;;;;;;;0.85;0.28;;;14.20;41.30;;;;;;4948742;29;20599;-84
2021/04/13 11:59:15;;;;;;;0.20;0.20;;;14.00;41.50;;;;;;4948546;28;22355;-85
2021/04/13 12:01:45;;;;;;;0.60;0.30;;;14.00;41.60;;;;;;4948333;28;20040;-84
2021/04/13 12:04:16;;;;;;;1.40;0.57;;;14.10;41.40;;;;;;4949127;29;20031;-85
2021/04/13 12:07:05;;;;;;;0.30;0.30;;;14.10;41.20;;;;;;4985303;28;20041;-84
2021/04/13 12:09:40;;;;;;;0.30;0.10;;;14.20;41.10;;;;;;4970819;28;20068;-84
2021/04/13 12:12:27;;;;;;;0.55;0.15;;;14.30;41.00;;;;;;4988707;28;20510;-83
2021/04/13 12:14:53;;;;;;;0.95;0.43;;;14.40;40.70;;;;;;4971473;28;20042;-84
2021/04/13 12:17:44;;;;;;;0.50;0.25;;;14.50;40.60;;;;;;4988205;28;20042;-85
2021/04/13 12:20:30;;;;;;;0.65;0.20;;;14.70;40.60;;;;;;4974023;28;20038;-86
2021/04/13 12:23:05;;;;;;;3.08;0.73;;;14.80;40.40;;;;;;4987514;28;20035;-85
2021/04/13 12:25:35;;;;;;;2.45;0.60;;;14.80;40.30;;;;;;4988710;28;20037;-85
2021/04/13 12:28:05;;;;;;;2.38;0.70;;;14.80;40.20;;;;;;4987380;28;20413;-85
2021/04/13 12:30:42;;;;;;;1.35;0.22;;;14.80;40.30;;;;;;4989858;28;20030;-84
2021/04/13 12:33:28;;;;;;;0.80;0.60;;;15.00;40.30;;;;;;4987385;28;20027;-84
2021/04/13 12:35:58;;;;;;;2.17;0.95;;;15.00;39.90;;;;;;4963505;28;20424;-84
2021/04/13 12:38:43;;;;;;;1.38;0.38;;;15.00;39.70;;;;;;4942043;28;20047;-85
2021/04/13 12:41:26;;;;;;;0.57;0.30;;;14.90;39.60;;;;;;4963300;28;20038;-83
2021/04/13 12:43:55;;;;;;;3.40;0.65;;;14.80;39.50;;;;;;4966140;28;20031;-85
2021/04/13 12:46:34;;;;;;;0.32;0.22;;;14.80;39.50;;;;;;4952394;28;20063;-86
2021/04/13 12:49:05;;;;;;;1.05;0.40;;;14.80;39.60;;;;;;4963340;28;20046;-85
2021/04/13 12:51:37;;;;;;;1.90;0.35;;;14.80;39.50;;;;;;4951148;28;20101;-85
2021/04/13 12:54:26;;;;;;;0.40;0.22;;;14.80;39.40;;;;;;4969852;28;20038;-85
2021/04/13 12:56:56;;;;;;;0.30;0.08;;;14.80;39.30;;;;;;4964644;28;20404;-85
2021/04/13 12:59:25;;;;;;;0.30;0.13;;;14.70;39.20;;;;;;4954878;28;20152;-86
2021/04/13 13:01:51;;;;;;;0.35;0.20;;;14.80;39.40;;;;;;4923457;28;20031;-86
2021/04/13 13:04:19;;;;;;;0.00;0.00;;;14.70;39.30;;;;;;4939757;28;20050;-87
2021/04/13 13:06:54;;;;;;;0.08;0.00;;;14.80;39.40;;;;;;4956257;28;20041;-86
2021/04/13 13:09:32;;;;;;;2.25;0.80;;;14.80;39.20;;;;;;4939393;28;20054;-85
2021/04/13 13:12:28;;;;;;;1.08;0.28;;;14.80;39.20;;;;;;4956044;28;20480;-86
2021/04/13 13:15:14;;;;;;;0.00;0.00;;;14.90;39.00;;;;;;4986884;28;20398;-86
2021/04/13 13:17:43;;;;;;;0.10;0.00;;;15.00;38.90;;;;;;4989808;28;20518;-85
2021/04/13 13:20:16;;;;;;;1.85;0.82;;;15.00;38.70;;;;;;4975154;28;20049;-88
2021/04/13 13:22:50;;;;;;;2.08;0.75;;;15.00;38.70;;;;;;5007830;28;20392;-76
2021/04/13 13:25:23;;;;;;;1.23;0.65;;;15.10;38.80;;;;;;4984609;28;20388;-82
2021/04/13 13:27:49;;;;;;;0.47;0.10;;;15.20;38.70;;;;;;4990970;28;20069;-86
2021/04/13 13:30:17;;;;;;;2.38;0.68;;;15.20;38.40;;;;;;5023490;28;20023;-79
2021/04/13 13:32:43;;;;;;;0.22;0.15;;;15.20;38.50;;;;;;4974525;28;20041;-83
2021/04/13 13:35:14;;;;;;;0.43;0.30;;;15.20;38.40;;;;;;5003349;28;20027;-84
2021/04/13 13:37:45;;;;;;;4.97;1.58;;;15.20;38.30;;;;;;4991502;28;20069;-85
2021/04/13 13:40:43;;;;;;;0.52;0.38;;;15.20;38.20;;;;;;4992403;28;20042;-85